createdAt,value
2023-02-18T00:00:48.344Z,948.81
2023-02-18T00:01:48.342Z,948.86
2023-02-18T00:02:49.879Z,948.89
2023-02-18T00:03:48.376Z,948.87
2023-02-18T00:04:48.271Z,948.85
2023-02-18T00:05:48.267Z,948.85
2023-02-18T00:06:48.282Z,948.88
2023-02-18T00:07:48.286Z,948.87
2023-02-18T00:08:48.639Z,948.93
2023-02-18T00:09:48.253Z,948.89
2023-02-18T00:10:48.223Z,948.95
2023-02-18T00:11:48.212Z,948.70
2023-02-18T00:12:48.209Z,948.93
2023-02-18T00:13:48.224Z,948.91
2023-02-18T00:14:48.229Z,948.88
2023-02-18T00:15:48.236Z,948.92
2023-02-18T00:16:49.027Z,948.78
2023-02-18T00:17:48.152Z,948.78
2023-02-18T00:18:48.164Z,948.68
2023-02-18T00:19:48.178Z,948.81
2023-02-18T00:20:48.103Z,948.74
2023-02-18T00:21:48.104Z,948.58
2023-02-18T00:22:48.204Z,948.72
2023-02-18T00:23:48.088Z,948.82
2023-02-18T00:24:48.096Z,948.84
2023-02-18T00:25:48.075Z,948.80
2023-02-18T00:26:48.043Z,948.76
2023-02-18T00:27:48.586Z,948.69
2023-02-18T00:28:48.021Z,948.68
2023-02-18T00:29:48.051Z,948.56
2023-02-18T00:30:48.068Z,948.66
2023-02-18T00:31:48.087Z,948.53
2023-02-18T00:32:48.006Z,948.52
2023-02-18T00:33:48.008Z,948.60
2023-02-18T00:34:47.982Z,948.54
2023-02-18T00:35:48.003Z,948.57
2023-02-18T00:36:47.942Z,948.55
2023-02-18T00:37:47.932Z,948.53
2023-02-18T00:38:47.954Z,948.55
2023-02-18T00:39:47.906Z,948.63
2023-02-18T00:40:47.893Z,948.47
2023-02-18T00:41:47.909Z,948.48
2023-02-18T00:42:47.877Z,948.49
2023-02-18T00:43:47.873Z,948.46
2023-02-18T00:44:47.851Z,948.50
2023-02-18T00:45:47.839Z,948.42
2023-02-18T00:46:47.963Z,948.41
2023-02-18T00:47:47.815Z,948.46
2023-02-18T00:48:47.831Z,948.46
2023-02-18T00:49:47.829Z,948.40
2023-02-18T00:50:47.786Z,948.10
2023-02-18T00:51:47.789Z,948.45
2023-02-18T00:52:47.773Z,948.42
2023-02-18T00:53:47.758Z,948.40
2023-02-18T00:54:47.842Z,948.45
2023-02-18T00:55:47.733Z,948.45
2023-02-18T00:56:47.761Z,948.47
2023-02-18T00:57:47.833Z,948.47
2023-02-18T00:58:47.696Z,948.43
2023-02-18T00:59:47.693Z,948.46
2023-02-18T01:00:47.753Z,948.51
2023-02-18T01:01:47.773Z,948.49
2023-02-18T01:02:47.656Z,948.46
2023-02-18T01:03:47.654Z,948.48
2023-02-18T01:04:47.703Z,948.42
2023-02-18T01:05:47.639Z,948.42
2023-02-18T01:06:47.638Z,948.41
2023-02-18T01:07:47.604Z,948.33
2023-02-18T01:08:47.593Z,948.40
2023-02-18T01:09:47.589Z,948.46
2023-02-18T01:10:47.616Z,948.43
2023-02-18T01:11:47.596Z,948.24
2023-02-18T01:12:47.571Z,948.28
2023-02-18T01:13:47.551Z,948.41
2023-02-18T01:14:47.581Z,948.30
2023-02-18T01:15:47.638Z,948.27
2023-02-18T01:16:58.066Z,948.39
2023-02-18T01:17:47.522Z,948.32
2023-02-18T01:18:47.558Z,948.29
2023-02-18T01:19:47.477Z,948.36
2023-02-18T01:20:47.459Z,948.33
2023-02-18T01:21:47.499Z,948.39
2023-02-18T01:22:47.458Z,948.38
2023-02-18T01:23:47.440Z,948.44
2023-02-18T01:24:47.490Z,948.36
2023-02-18T01:25:47.439Z,948.37
2023-02-18T01:26:47.428Z,948.43
2023-02-18T01:27:47.436Z,948.37
2023-02-18T01:28:47.407Z,948.40
2023-02-18T01:29:47.373Z,948.32
2023-02-18T01:30:47.385Z,948.36
2023-02-18T01:31:47.492Z,948.34
2023-02-18T01:32:47.356Z,948.34
2023-02-18T01:33:47.354Z,948.37
2023-02-18T01:34:47.389Z,948.38
2023-02-18T01:35:47.322Z,948.20
2023-02-18T01:36:47.318Z,948.31
2023-02-18T01:37:47.298Z,948.34
2023-02-18T01:38:47.275Z,948.11
2023-02-18T01:39:47.280Z,948.28
2023-02-18T01:40:47.265Z,948.22
2023-02-18T01:41:48.058Z,948.09
2023-02-18T01:42:47.245Z,948.22
2023-02-18T01:43:47.255Z,948.22
2023-02-18T01:44:47.227Z,948.24
2023-02-18T01:45:47.190Z,948.20
2023-02-18T01:46:47.328Z,948.17
2023-02-18T01:47:47.183Z,948.20
2023-02-18T01:48:47.183Z,948.19
2023-02-18T01:49:47.184Z,948.00
2023-02-18T01:50:47.175Z,948.21
2023-02-18T01:51:47.131Z,948.14
2023-02-18T01:52:47.166Z,948.09
2023-02-18T01:53:47.131Z,948.13
2023-02-18T01:54:47.123Z,948.11
2023-02-18T01:55:47.145Z,948.16
2023-02-18T01:56:47.097Z,948.11
2023-02-18T01:57:47.100Z,948.13
2023-02-18T01:58:47.099Z,948.10
2023-02-18T01:59:47.042Z,948.09
2023-02-18T02:00:47.189Z,948.01
2023-02-18T02:01:47.150Z,948.07
2023-02-18T02:02:47.015Z,948.06
2023-02-18T02:03:47.063Z,948.04
2023-02-18T02:04:46.983Z,948.11
2023-02-18T02:05:47.005Z,948.07
2023-02-18T02:06:46.993Z,948.10
2023-02-18T02:07:47.176Z,948.05
2023-02-18T02:08:46.975Z,948.00
2023-02-18T02:09:46.937Z,947.98
2023-02-18T02:10:46.927Z,947.95
2023-02-18T02:11:46.986Z,948.03
2023-02-18T02:12:46.969Z,948.08
2023-02-18T02:13:46.931Z,947.99
2023-02-18T02:14:46.927Z,948.01
2023-02-18T02:15:46.887Z,948.01
2023-02-18T02:16:46.936Z,948.01
2023-02-18T02:17:46.902Z,947.95
2023-02-18T02:18:46.860Z,947.92
2023-02-18T02:19:46.878Z,947.84
2023-02-18T02:20:46.820Z,947.90
2023-02-18T02:21:46.821Z,948.04
2023-02-18T02:22:46.871Z,947.98
2023-02-18T02:23:46.797Z,947.88
2023-02-18T02:24:46.787Z,947.91
2023-02-18T02:25:46.772Z,947.78
2023-02-18T02:26:46.751Z,947.88
2023-02-18T02:27:46.785Z,947.88
2023-02-18T02:28:46.731Z,947.88
2023-02-18T02:29:46.727Z,947.85
2023-02-18T02:30:46.826Z,947.83
2023-02-18T02:31:46.743Z,947.90
2023-02-18T02:32:46.714Z,947.90
2023-02-18T02:33:46.680Z,947.90
2023-02-18T02:34:46.687Z,947.85
2023-02-18T02:35:46.658Z,947.84
2023-02-18T02:36:46.669Z,947.93
2023-02-18T02:37:46.690Z,947.92
2023-02-18T02:38:46.651Z,947.88
2023-02-18T02:39:46.628Z,947.84
2023-02-18T02:40:46.609Z,947.86
2023-02-18T02:41:46.634Z,947.89
2023-02-18T02:42:46.574Z,947.86
2023-02-18T02:43:46.582Z,947.87
2023-02-18T02:44:46.564Z,947.86
2023-02-18T02:45:46.600Z,947.84
2023-02-18T02:46:46.570Z,947.89
2023-02-18T02:47:46.576Z,947.87
2023-02-18T02:48:46.529Z,947.90
2023-02-18T02:49:46.511Z,947.91
2023-02-18T02:50:46.521Z,947.80
2023-02-18T02:51:46.525Z,947.80
2023-02-18T02:52:46.491Z,947.85
2023-02-18T02:53:46.517Z,947.77
2023-02-18T02:54:46.481Z,947.77
2023-02-18T02:55:46.443Z,947.79
2023-02-18T02:56:46.556Z,947.75
2023-02-18T02:57:46.420Z,947.73
2023-02-18T02:58:46.412Z,947.65
2023-02-18T02:59:46.411Z,947.84
2023-02-18T03:00:46.547Z,947.77
2023-02-18T03:01:46.413Z,947.83
2023-02-18T03:02:46.445Z,947.66
2023-02-18T03:03:46.366Z,947.64
2023-02-18T03:04:46.360Z,947.60
2023-02-18T03:05:46.369Z,947.51
2023-02-18T03:06:46.331Z,947.45
2023-02-18T03:07:46.384Z,947.43
2023-02-18T03:08:46.326Z,947.47
2023-02-18T03:09:46.342Z,947.48
2023-02-18T03:10:46.354Z,947.47
2023-02-18T03:11:46.274Z,947.55
2023-02-18T03:12:46.300Z,947.55
2023-02-18T03:13:46.258Z,947.61
2023-02-18T03:14:46.245Z,947.61
2023-02-18T03:15:46.239Z,947.61
2023-02-18T03:16:46.275Z,947.65
2023-02-18T03:17:46.287Z,947.61
2023-02-18T03:18:46.230Z,947.62
2023-02-18T03:19:46.183Z,947.61
2023-02-18T03:20:46.173Z,947.57
2023-02-18T03:21:46.209Z,947.55
2023-02-18T03:22:46.175Z,947.57
2023-02-18T03:23:46.158Z,947.59
2023-02-18T03:24:46.136Z,947.58
2023-02-18T03:25:46.189Z,947.58
2023-02-18T03:26:46.114Z,947.46
2023-02-18T03:27:46.249Z,947.51
2023-02-18T03:28:46.119Z,947.47
2023-02-18T03:29:46.085Z,947.53
2023-02-18T03:30:46.095Z,947.48
2023-02-18T03:31:46.153Z,947.37
2023-02-18T03:32:46.120Z,947.49
2023-02-18T03:33:46.106Z,947.42
2023-02-18T03:34:46.059Z,947.48
2023-02-18T03:35:46.021Z,947.44
2023-02-18T03:36:46.008Z,947.44
2023-02-18T03:37:46.005Z,947.50
2023-02-18T03:38:46.010Z,947.45
2023-02-18T03:39:46.012Z,947.45
2023-02-18T03:40:45.980Z,947.43
2023-02-18T03:41:45.985Z,947.35
2023-02-18T03:42:45.965Z,947.25
2023-02-18T03:43:45.935Z,947.39
2023-02-18T03:44:45.981Z,947.38
2023-02-18T03:45:45.998Z,947.39
2023-02-18T03:46:45.936Z,947.44
2023-02-18T03:47:45.915Z,947.40
2023-02-18T03:48:45.895Z,947.33
2023-02-18T03:49:45.870Z,947.37
2023-02-18T03:50:45.915Z,947.27
2023-02-18T03:51:45.847Z,947.33
2023-02-18T03:52:45.834Z,947.32
2023-02-18T03:53:45.824Z,947.40
2023-02-18T03:54:45.816Z,947.37
2023-02-18T03:55:45.820Z,947.42
2023-02-18T03:56:45.831Z,947.42
2023-02-18T03:57:45.830Z,947.44
2023-02-18T03:58:45.841Z,947.33
2023-02-18T03:59:45.765Z,947.44
2023-02-18T04:00:45.749Z,947.38
2023-02-18T04:01:45.818Z,947.31
2023-02-18T04:02:45.743Z,947.33
2023-02-18T04:03:45.743Z,947.38
2023-02-18T04:04:45.728Z,947.40
2023-02-18T04:05:45.749Z,947.47
2023-02-18T04:06:45.736Z,947.26
2023-02-18T04:07:45.700Z,947.39
2023-02-18T04:08:45.723Z,947.37
2023-02-18T04:09:45.710Z,947.28
2023-02-18T04:10:45.663Z,947.41
2023-02-18T04:11:45.665Z,947.39
2023-02-18T04:12:45.657Z,947.35
2023-02-18T04:13:45.604Z,947.41
2023-02-18T04:14:45.605Z,947.41
2023-02-18T04:15:45.586Z,947.40
2023-02-18T04:16:45.654Z,947.37
2023-02-18T04:17:45.653Z,947.45
2023-02-18T04:18:45.583Z,947.40
2023-02-18T04:19:53.093Z,947.36
2023-02-18T04:20:45.560Z,947.31
2023-02-18T04:21:45.516Z,947.36
2023-02-18T04:22:45.527Z,947.40
2023-02-18T04:23:45.668Z,947.40
2023-02-18T04:24:45.509Z,947.38
2023-02-18T04:25:45.485Z,947.32
2023-02-18T04:26:45.497Z,947.32
2023-02-18T04:27:45.489Z,947.38
2023-02-18T04:28:45.477Z,947.40
2023-02-18T04:29:45.510Z,947.41
2023-02-18T04:30:45.560Z,947.42
2023-02-18T04:31:45.570Z,947.43
2023-02-18T04:32:45.408Z,947.46
2023-02-18T04:33:45.392Z,947.44
2023-02-18T04:34:45.406Z,947.50
2023-02-18T04:35:45.425Z,947.49
2023-02-18T04:36:45.376Z,947.48
2023-02-18T04:37:45.476Z,947.55
2023-02-18T04:38:45.411Z,947.61
2023-02-18T04:39:45.341Z,947.58
2023-02-18T04:40:45.450Z,947.62
2023-02-18T04:41:45.311Z,947.66
2023-02-18T04:42:45.305Z,947.48
2023-02-18T04:43:45.282Z,947.61
2023-02-18T04:44:47.336Z,947.57
2023-02-18T04:45:45.350Z,947.61
2023-02-18T04:46:45.368Z,947.56
2023-02-18T04:47:45.237Z,947.54
2023-02-18T04:48:45.274Z,947.61
2023-02-18T04:49:45.229Z,947.49
2023-02-18T04:50:45.337Z,947.49
2023-02-18T04:51:45.297Z,947.51
2023-02-18T04:52:45.227Z,947.48
2023-02-18T04:53:45.175Z,947.48
2023-02-18T04:54:45.197Z,947.49
2023-02-18T04:55:45.209Z,947.48
2023-02-18T04:56:45.224Z,947.49
2023-02-18T04:57:45.140Z,947.39
2023-02-18T04:58:45.223Z,947.45
2023-02-18T04:59:45.131Z,947.41
2023-02-18T05:00:45.102Z,947.42
2023-02-18T05:01:45.091Z,947.35
2023-02-18T05:02:45.085Z,947.47
2023-02-18T05:03:45.167Z,947.38
2023-02-18T05:04:45.084Z,947.37
2023-02-18T05:05:45.050Z,947.43
2023-02-18T05:06:45.073Z,947.29
2023-02-18T05:07:45.042Z,947.36
2023-02-18T05:08:45.042Z,947.28
2023-02-18T05:09:45.034Z,947.26
2023-02-18T05:10:45.036Z,947.29
2023-02-18T05:11:45.013Z,947.24
2023-02-18T05:12:44.983Z,947.23
2023-02-18T05:13:44.993Z,947.39
2023-02-18T05:14:44.998Z,947.27
2023-02-18T05:15:45.017Z,947.32
2023-02-18T05:16:44.953Z,947.29
2023-02-18T05:17:44.954Z,947.28
2023-02-18T05:18:44.921Z,947.28
2023-02-18T05:19:44.902Z,947.33
2023-02-18T05:20:44.954Z,947.24
2023-02-18T05:21:44.892Z,947.31
2023-02-18T05:22:44.882Z,947.32
2023-02-18T05:23:44.860Z,947.36
2023-02-18T05:24:44.853Z,947.32
2023-02-18T05:25:44.836Z,947.28
2023-02-18T05:26:44.885Z,947.25
2023-02-18T05:27:44.910Z,947.26
2023-02-18T05:28:44.839Z,947.28
2023-02-18T05:29:44.798Z,947.20
2023-02-18T05:30:44.850Z,947.20
2023-02-18T05:31:44.962Z,947.15
2023-02-18T05:32:44.797Z,947.18
2023-02-18T05:33:44.833Z,947.26
2023-02-18T05:34:44.784Z,947.09
2023-02-18T05:35:44.831Z,947.11
2023-02-18T05:36:44.733Z,947.18
2023-02-18T05:37:44.722Z,947.10
2023-02-18T05:38:44.703Z,947.14
2023-02-18T05:39:44.724Z,947.10
2023-02-18T05:40:44.678Z,947.12
2023-02-18T05:41:44.673Z,947.13
2023-02-18T05:42:44.704Z,947.18
2023-02-18T05:43:44.720Z,947.19
2023-02-18T05:44:44.654Z,947.10
2023-02-18T05:45:44.709Z,947.10
2023-02-18T05:46:44.713Z,947.12
2023-02-18T05:47:44.620Z,947.15
2023-02-18T05:48:44.603Z,947.10
2023-02-18T05:49:44.619Z,947.10
2023-02-18T05:50:44.575Z,947.10
2023-02-18T05:51:44.626Z,947.16
2023-02-18T05:52:44.582Z,947.08
2023-02-18T05:53:44.667Z,947.16
2023-02-18T05:54:44.558Z,947.13
2023-02-18T05:55:44.576Z,947.20
2023-02-18T05:56:44.590Z,947.17
2023-02-18T05:57:45.132Z,947.23
2023-02-18T05:58:44.517Z,947.26
2023-02-18T05:59:44.475Z,947.20
2023-02-18T06:00:44.496Z,947.26
2023-02-18T06:01:44.615Z,947.27
2023-02-18T06:02:44.509Z,947.18
2023-02-18T06:03:44.464Z,947.23
2023-02-18T06:04:44.426Z,947.14
2023-02-18T06:05:44.438Z,947.19
2023-02-18T06:06:44.437Z,947.26
2023-02-18T06:07:44.461Z,947.24
2023-02-18T06:08:44.455Z,947.18
2023-02-18T06:09:44.398Z,947.14
2023-02-18T06:10:44.374Z,947.25
2023-02-18T06:11:44.353Z,947.23
2023-02-18T06:12:44.358Z,947.12
2023-02-18T06:13:44.381Z,947.03
2023-02-18T06:14:44.389Z,947.15
2023-02-18T06:15:44.355Z,947.18
2023-02-18T06:16:44.311Z,947.00
2023-02-18T06:17:44.311Z,947.16
2023-02-18T06:18:44.346Z,947.12
2023-02-18T06:19:44.263Z,947.14
2023-02-18T06:20:44.253Z,947.09
2023-02-18T06:21:44.289Z,947.07
2023-02-18T06:22:44.233Z,947.03
2023-02-18T06:23:44.217Z,947.04
2023-02-18T06:24:44.209Z,947.05
2023-02-18T06:25:44.200Z,946.99
2023-02-18T06:26:44.261Z,947.02
2023-02-18T06:27:44.183Z,946.99
2023-02-18T06:28:44.182Z,947.03
2023-02-18T06:29:44.185Z,947.09
2023-02-18T06:30:44.169Z,947.10
2023-02-18T06:31:44.278Z,947.04
2023-02-18T06:32:44.174Z,947.08
2023-02-18T06:33:44.117Z,947.08
2023-02-18T06:34:44.113Z,947.04
2023-02-18T06:35:44.088Z,947.12
2023-02-18T06:36:44.108Z,947.08
2023-02-18T06:37:44.102Z,947.04
2023-02-18T06:38:44.105Z,947.00
2023-02-18T06:39:44.042Z,946.99
2023-02-18T06:40:44.050Z,946.84
2023-02-18T06:41:44.063Z,946.90
2023-02-18T06:42:44.027Z,946.93
2023-02-18T06:43:44.031Z,946.77
2023-02-18T06:44:44.664Z,946.93
2023-02-18T06:45:43.978Z,946.89
2023-02-18T06:46:44.091Z,946.81
2023-02-18T06:47:43.965Z,946.77
2023-02-18T06:48:43.962Z,946.90
2023-02-18T06:49:43.967Z,946.86
2023-02-18T06:50:43.942Z,946.84
2023-02-18T06:51:43.949Z,946.85
2023-02-18T06:52:43.902Z,946.92
2023-02-18T06:53:43.921Z,946.95
2023-02-18T06:54:43.894Z,946.97
2023-02-18T06:55:43.868Z,947.02
2023-02-18T06:56:43.859Z,946.95
2023-02-18T06:57:43.882Z,946.93
2023-02-18T06:58:43.844Z,946.97
2023-02-18T06:59:43.839Z,946.97
2023-02-18T07:00:43.857Z,946.97
2023-02-18T07:01:43.812Z,947.02
2023-02-18T07:02:43.824Z,946.96
2023-02-18T07:03:43.816Z,947.08
2023-02-18T07:04:43.777Z,946.93
2023-02-18T07:05:43.794Z,947.06
2023-02-18T07:06:43.780Z,946.93
2023-02-18T07:07:43.734Z,946.94
2023-02-18T07:08:43.766Z,946.92
2023-02-18T07:09:43.717Z,947.02
2023-02-18T07:10:43.713Z,947.04
2023-02-18T07:11:43.701Z,947.01
2023-02-18T07:12:43.693Z,946.99
2023-02-18T07:13:43.670Z,946.99
2023-02-18T07:14:43.692Z,947.10
2023-02-18T07:15:43.703Z,947.07
2023-02-18T07:16:43.704Z,946.96
2023-02-18T07:17:43.638Z,947.03
2023-02-18T07:18:43.649Z,947.05
2023-02-18T07:19:43.630Z,947.01
2023-02-18T07:20:43.688Z,947.07
2023-02-18T07:21:43.594Z,947.17
2023-02-18T07:22:43.599Z,947.18
2023-02-18T07:23:43.595Z,947.12
2023-02-18T07:24:43.562Z,947.16
2023-02-18T07:25:43.560Z,947.21
2023-02-18T07:26:43.553Z,947.16
2023-02-18T07:27:43.533Z,947.22
2023-02-18T07:28:43.546Z,947.26
2023-02-18T07:29:43.515Z,946.99
2023-02-18T07:30:43.508Z,947.24
2023-02-18T07:31:43.846Z,947.19
2023-02-18T07:32:43.505Z,947.24
2023-02-18T07:33:43.470Z,947.28
2023-02-18T07:34:43.484Z,947.30
2023-02-18T07:35:43.450Z,947.24
2023-02-18T07:36:43.433Z,947.26
2023-02-18T07:37:43.453Z,947.21
2023-02-18T07:38:43.437Z,947.19
2023-02-18T07:39:43.396Z,947.16
2023-02-18T07:40:43.401Z,947.16
2023-02-18T07:41:43.400Z,947.09
2023-02-18T07:42:43.392Z,947.02
2023-02-18T07:43:43.428Z,946.96
2023-02-18T07:44:43.360Z,947.06
2023-02-18T07:45:43.719Z,946.97
2023-02-18T07:46:43.426Z,947.02
2023-02-18T07:47:43.337Z,947.02
2023-02-18T07:48:43.301Z,947.03
2023-02-18T07:49:43.304Z,947.10
2023-02-18T07:50:43.381Z,947.09
2023-02-18T07:51:43.271Z,947.08
2023-02-18T07:52:43.262Z,947.13
2023-02-18T07:53:43.270Z,947.10
2023-02-18T07:54:43.282Z,947.03
2023-02-18T07:55:43.322Z,947.08
2023-02-18T07:56:43.230Z,947.10
2023-02-18T07:57:43.205Z,947.03
2023-02-18T07:58:43.217Z,947.03
2023-02-18T07:59:43.221Z,946.95
2023-02-18T08:00:43.208Z,947.03
2023-02-18T08:01:44.837Z,947.08
2023-02-18T08:02:43.155Z,947.00
2023-02-18T08:03:43.181Z,947.11
2023-02-18T08:04:43.160Z,947.01
2023-02-18T08:05:43.128Z,946.87
2023-02-18T08:06:43.192Z,946.96
2023-02-18T08:07:43.105Z,946.90
2023-02-18T08:08:43.144Z,946.93
2023-02-18T08:09:43.083Z,946.98
2023-02-18T08:10:43.098Z,946.87
2023-02-18T08:11:43.133Z,946.78
2023-02-18T08:12:43.084Z,946.98
2023-02-18T08:13:43.037Z,946.88
2023-02-18T08:14:43.021Z,946.91
2023-02-18T08:15:43.017Z,946.90
2023-02-18T08:16:43.042Z,946.88
2023-02-18T08:17:43.001Z,946.79
2023-02-18T08:18:42.994Z,946.73
2023-02-18T08:19:42.971Z,946.83
2023-02-18T08:20:42.993Z,946.79
2023-02-18T08:21:42.961Z,946.76
2023-02-18T08:22:42.966Z,946.63
2023-02-18T08:23:42.961Z,946.57
2023-02-18T08:24:42.938Z,946.54
2023-02-18T08:25:43.046Z,946.84
2023-02-18T08:26:59.204Z,946.57
2023-02-18T08:27:43.895Z,946.72
2023-02-18T08:28:42.874Z,946.66
2023-02-18T08:29:42.866Z,946.65
2023-02-18T08:30:43.028Z,946.63
2023-02-18T08:31:44.748Z,946.76
2023-02-18T08:32:42.835Z,946.65
2023-02-18T08:33:42.843Z,946.47
2023-02-18T08:34:42.892Z,946.66
2023-02-18T08:35:42.856Z,946.61
2023-02-18T08:36:42.819Z,946.52
2023-02-18T08:37:52.656Z,946.55
2023-02-18T08:38:43.792Z,946.52
2023-02-18T08:39:42.782Z,946.54
2023-02-18T08:40:42.809Z,946.53
2023-02-18T08:41:42.763Z,946.57
2023-02-18T08:42:42.810Z,946.59
2023-02-18T08:43:42.723Z,946.41
2023-02-18T08:44:42.701Z,946.52
2023-02-18T08:45:42.803Z,946.46
2023-02-18T08:46:42.801Z,946.49
2023-02-18T08:48:15.883Z,946.45
2023-02-18T08:48:43.662Z,946.69
2023-02-18T08:49:42.655Z,946.41
2023-02-18T08:50:42.643Z,946.56
2023-02-18T08:51:42.653Z,946.65
2023-02-18T08:52:42.612Z,946.34
2023-02-18T08:53:42.608Z,946.48
2023-02-18T08:54:42.636Z,946.61
2023-02-18T08:55:42.644Z,946.49
2023-02-18T08:56:42.596Z,946.53
2023-02-18T08:57:42.561Z,946.45
2023-02-18T08:58:42.596Z,946.30
2023-02-18T08:59:42.543Z,946.44
2023-02-18T09:00:42.569Z,946.43
2023-02-18T09:01:42.668Z,946.35
2023-02-18T09:02:42.510Z,946.18
2023-02-18T09:03:42.524Z,946.19
2023-02-18T09:04:42.484Z,945.99
2023-02-18T09:05:42.481Z,946.19
2023-02-18T09:06:42.582Z,946.26
2023-02-18T09:07:42.496Z,946.26
2023-02-18T09:08:42.447Z,946.08
2023-02-18T09:09:42.471Z,946.20
2023-02-18T09:10:43.582Z,946.14
2023-02-18T09:11:42.410Z,946.11
2023-02-18T09:12:42.413Z,946.03
2023-02-18T09:13:42.415Z,946.12
2023-02-18T09:14:42.372Z,946.11
2023-02-18T09:15:42.401Z,946.08
2023-02-18T09:16:47.254Z,946.09
2023-02-18T09:17:42.351Z,946.08
2023-02-18T09:18:42.374Z,946.04
2023-02-18T09:19:42.332Z,945.90
2023-02-18T09:20:50.110Z,945.97
2023-02-18T09:21:42.294Z,946.05
2023-02-18T09:22:42.285Z,945.90
2023-02-18T09:23:42.318Z,945.99
2023-02-18T09:24:42.261Z,945.92
2023-02-18T09:25:42.253Z,945.91
2023-02-18T09:26:42.268Z,945.85
2023-02-18T09:27:42.235Z,945.97
2023-02-18T09:28:42.242Z,945.84
2023-02-18T09:29:42.267Z,945.74
2023-02-18T09:30:42.360Z,945.82
2023-02-18T09:31:42.308Z,945.63
2023-02-18T09:32:42.217Z,945.76
2023-02-18T09:33:43.272Z,945.85
2023-02-18T09:34:42.219Z,945.76
2023-02-18T09:35:42.195Z,945.80
2023-02-18T09:36:42.130Z,945.71
2023-02-18T09:37:42.136Z,945.72
2023-02-18T09:38:42.149Z,945.72
2023-02-18T09:39:42.104Z,945.65
2023-02-18T09:40:42.124Z,945.68
2023-02-18T09:41:42.721Z,945.75
2023-02-18T09:42:42.093Z,945.66
2023-02-18T09:43:42.102Z,945.72
2023-02-18T09:44:42.070Z,945.72
2023-02-18T09:45:42.066Z,945.76
2023-02-18T09:46:42.051Z,945.66
2023-02-18T09:47:42.057Z,945.74
2023-02-18T09:48:42.057Z,945.56
2023-02-18T09:49:41.991Z,945.57
2023-02-18T09:50:41.978Z,945.55
2023-02-18T09:51:41.976Z,945.54
2023-02-18T09:52:41.963Z,945.52
2023-02-18T09:53:41.986Z,945.50
2023-02-18T09:54:41.938Z,945.60
2023-02-18T09:55:41.949Z,945.66
2023-02-18T09:56:42.083Z,945.58
2023-02-18T09:57:41.925Z,945.65
2023-02-18T09:58:41.921Z,945.53
2023-02-18T09:59:41.896Z,945.42
2023-02-18T10:00:41.912Z,945.54
2023-02-18T10:01:41.973Z,945.62
2023-02-18T10:02:41.903Z,945.59
2023-02-18T10:03:42.732Z,945.70
2023-02-18T10:04:41.850Z,945.55
2023-02-18T10:05:41.862Z,945.65
2023-02-18T10:06:41.825Z,945.73
2023-02-18T10:07:41.820Z,945.76
2023-02-18T10:08:41.805Z,945.56
2023-02-18T10:09:42.262Z,945.51
2023-02-18T10:10:41.783Z,945.63
2023-02-18T10:11:41.775Z,945.55
2023-02-18T10:12:41.816Z,945.47
2023-02-18T10:13:41.757Z,945.44
2023-02-18T10:14:41.750Z,945.42
2023-02-18T10:15:41.852Z,945.46
2023-02-18T10:16:41.733Z,945.27
2023-02-18T10:17:41.690Z,945.33
2023-02-18T10:18:41.707Z,945.20
2023-02-18T10:19:41.756Z,945.29
2023-02-18T10:20:41.731Z,945.23
2023-02-18T10:21:41.671Z,945.22
2023-02-18T10:22:41.673Z,945.18
2023-02-18T10:23:41.645Z,945.26
2023-02-18T10:24:41.639Z,945.17
2023-02-18T10:25:41.621Z,945.13
2023-02-18T10:26:41.591Z,945.24
2023-02-18T10:27:41.644Z,945.17
2023-02-18T10:28:41.580Z,945.14
2023-02-18T10:29:41.565Z,945.19
2023-02-18T10:30:41.592Z,945.11
2023-02-18T10:31:41.695Z,945.08
2023-02-18T10:32:41.553Z,945.03
2023-02-18T10:33:41.552Z,944.87
2023-02-18T10:34:41.542Z,944.70
2023-02-18T10:35:41.513Z,944.92
2023-02-18T10:36:41.503Z,944.85
2023-02-18T10:37:41.537Z,944.82
2023-02-18T10:38:41.524Z,944.65
2023-02-18T10:39:41.603Z,944.73
2023-02-18T10:40:41.475Z,944.76
2023-02-18T10:41:41.442Z,944.90
2023-02-18T10:42:41.454Z,944.73
2023-02-18T10:43:41.414Z,944.65
2023-02-18T10:44:41.447Z,944.83
2023-02-18T10:45:41.416Z,944.74
2023-02-18T10:46:46.375Z,944.58
2023-02-18T10:47:41.376Z,944.74
2023-02-18T10:48:41.389Z,944.73
2023-02-18T10:49:41.438Z,944.85
2023-02-18T10:50:41.362Z,944.84
2023-02-18T10:51:41.343Z,944.80
2023-02-18T10:52:41.339Z,944.74
2023-02-18T10:53:41.322Z,944.65
2023-02-18T10:54:41.341Z,944.78
2023-02-18T10:55:41.326Z,944.57
2023-02-18T10:56:41.341Z,944.69
2023-02-18T10:57:41.284Z,944.80
2023-02-18T10:58:41.250Z,944.68
2023-02-18T10:59:41.250Z,944.69
2023-02-18T11:00:41.242Z,944.74
2023-02-18T11:01:41.461Z,944.74
2023-02-18T11:02:41.232Z,944.73
2023-02-18T11:03:41.204Z,944.69
2023-02-18T11:04:41.266Z,944.67
2023-02-18T11:05:41.203Z,944.35
2023-02-18T11:06:41.200Z,944.63
2023-02-18T11:07:41.164Z,944.46
2023-02-18T11:08:41.188Z,944.50
2023-02-18T11:09:41.178Z,944.42
2023-02-18T11:10:41.130Z,944.40
2023-02-18T11:11:41.790Z,944.34
2023-02-18T11:12:41.201Z,944.39
2023-02-18T11:13:41.169Z,944.28
2023-02-18T11:14:41.112Z,944.35
2023-02-18T11:15:41.086Z,944.31
2023-02-18T11:16:41.210Z,944.35
2023-02-18T11:17:41.221Z,944.25
2023-02-18T11:18:41.118Z,944.26
2023-02-18T11:19:41.071Z,944.10
2023-02-18T11:20:41.037Z,944.13
2023-02-18T11:21:41.074Z,944.09
2023-02-18T11:22:41.036Z,944.14
2023-02-18T11:23:41.017Z,943.98
2023-02-18T11:24:41.026Z,944.00
2023-02-18T11:25:40.987Z,943.94
2023-02-18T11:26:40.983Z,943.95
2023-02-18T11:27:40.976Z,943.85
2023-02-18T11:28:40.943Z,944.00
2023-02-18T11:29:40.942Z,943.95
2023-02-18T11:30:41.049Z,943.92
2023-02-18T11:31:41.023Z,943.94
2023-02-18T11:32:40.928Z,943.95
2023-02-18T11:33:40.910Z,943.76
2023-02-18T11:34:40.942Z,943.81
2023-02-18T11:35:40.883Z,943.86
2023-02-18T11:36:40.972Z,943.83
2023-02-18T11:37:40.868Z,943.76
2023-02-18T11:38:40.960Z,943.80
2023-02-18T11:39:40.841Z,943.71
2023-02-18T11:40:40.821Z,943.75
2023-02-18T11:41:40.890Z,943.76
2023-02-18T11:42:40.879Z,943.69
2023-02-18T11:43:40.791Z,943.60
2023-02-18T11:44:40.782Z,943.64
2023-02-18T11:45:40.809Z,943.70
2023-02-18T11:46:40.827Z,943.68
2023-02-18T11:47:40.784Z,943.75
2023-02-18T11:48:40.779Z,943.69
2023-02-18T11:49:40.757Z,943.71
2023-02-18T11:50:40.764Z,943.61
2023-02-18T11:51:40.749Z,943.49
2023-02-18T11:52:40.700Z,943.64
2023-02-18T11:53:40.716Z,943.71
2023-02-18T11:54:40.682Z,943.44
2023-02-18T11:55:40.662Z,943.49
2023-02-18T11:56:40.658Z,943.59
2023-02-18T11:57:40.716Z,943.48
2023-02-18T11:58:40.655Z,943.47
2023-02-18T11:59:40.633Z,943.44
2023-02-18T12:00:40.640Z,943.51
2023-02-18T12:01:40.675Z,943.41
2023-02-18T12:02:40.598Z,943.50
2023-02-18T12:03:40.622Z,943.51
2023-02-18T12:04:40.578Z,943.47
2023-02-18T12:05:40.621Z,943.45
2023-02-18T12:06:40.653Z,943.46
2023-02-18T12:07:40.579Z,943.51
2023-02-18T12:08:40.546Z,943.48
2023-02-18T12:09:40.557Z,943.10
2023-02-18T12:10:40.508Z,943.49
2023-02-18T12:11:40.503Z,943.26
2023-02-18T12:12:40.529Z,943.28
2023-02-18T12:13:40.473Z,943.44
2023-02-18T12:14:40.467Z,943.54
2023-02-18T12:15:40.453Z,943.46
2023-02-18T12:16:40.474Z,943.46
2023-02-18T12:17:40.473Z,943.52
2023-02-18T12:18:42.670Z,943.35
2023-02-18T12:19:40.412Z,943.45
2023-02-18T12:20:40.410Z,943.46
2023-02-18T12:21:40.385Z,943.36
2023-02-18T12:22:40.400Z,943.52
2023-02-18T12:23:40.377Z,943.47
2023-02-18T12:24:40.401Z,943.54
2023-02-18T12:25:40.390Z,943.59
2023-02-18T12:26:40.336Z,943.46
2023-02-18T12:27:40.324Z,943.43
2023-02-18T12:28:40.347Z,943.49